Time;durP1;ratioP1;P1;durP2;ratioP2;P2;SDS_P1;SDS_P2;PMS_P1;PMS_P2;Temp;Humidity;BMP_temperature;BMP_pressure;BME280_temperature;BME280_humidity;BME280_pressure;Samples;Min_cycle;Max_cycle;Signal;HPM_P1;HPM_P2
2022/04/07 00:01:19;;;;;;;720.53;663.20;;;8.40;99.90;;;;;;5043120;28;20445;-80
2022/04/07 00:03:46;;;;;;;719.37;659.50;;;8.30;99.90;;;;;;5042809;28;20458;-81
2022/04/07 00:06:13;;;;;;;711.43;651.67;;;8.60;99.90;;;;;;5042483;28;20472;-81
2022/04/07 00:08:40;;;;;;;720.80;659.50;;;8.50;99.90;;;;;;5042454;28;20475;-80
2022/04/07 00:11:08;;;;;;;709.27;652.37;;;8.60;99.90;;;;;;5042213;28;20456;-81
2022/04/07 00:13:34;;;;;;;697.53;641.07;;;8.40;99.90;;;;;;5042919;28;20484;-82
2022/04/07 00:16:03;;;;;;;703.87;648.17;;;8.40;99.90;;;;;;5042058;28;20551;-80
2022/04/07 00:18:30;;;;;;;684.00;633.63;;;8.50;99.90;;;;;;5042394;28;20479;-81
2022/04/07 00:20:57;;;;;;;661.70;621.60;;;8.50;99.90;;;;;;5041590;28;20454;-80
2022/04/07 00:23:24;;;;;;;653.23;618.17;;;8.60;99.90;;;;;;5041297;28;20452;-81
2022/04/07 00:25:51;;;;;;;639.43;606.53;;;8.70;99.90;;;;;;5041924;28;20476;-81
2022/04/07 00:28:17;;;;;;;494.70;475.90;;;8.60;99.90;;;;;;5040651;28;20453;-80
2022/04/07 00:30:44;;;;;;;402.10;388.77;;;8.70;99.90;;;;;;5041032;28;20455;-80
2022/04/07 00:33:15;;;;;;;326.87;316.27;;;8.60;99.90;;;;;;5041553;28;20448;-81
2022/04/07 00:35:41;;;;;;;239.97;232.27;;;8.80;99.90;;;;;;5040874;28;20536;-81
2022/04/07 00:38:09;;;;;;;151.93;146.93;;;8.60;99.90;;;;;;5039819;28;20482;-82
2022/04/07 00:40:35;;;;;;;131.23;126.73;;;8.80;99.90;;;;;;5040881;28;20462;-81
2022/04/07 00:43:02;;;;;;;128.97;124.77;;;9.00;99.90;;;;;;5040262;28;20452;-81
2022/04/07 00:45:29;;;;;;;97.23;93.83;;;9.00;99.90;;;;;;5040873;28;20476;-81
2022/04/07 00:47:55;;;;;;;138.90;133.90;;;9.10;99.90;;;;;;5041400;28;20819;-82
2022/04/07 00:50:23;;;;;;;293.33;283.57;;;9.20;99.90;;;;;;5041622;28;20456;-84
2022/04/07 00:52:53;;;;;;;173.40;167.10;;;9.00;99.90;;;;;;5040564;28;20454;-84
2022/04/07 00:55:23;;;;;;;73.47;70.77;;;9.30;99.90;;;;;;5042125;28;20478;-82
2022/04/07 00:57:50;;;;;;;155.23;149.87;;;9.00;99.90;;;;;;5041818;28;20457;-82
2022/04/07 01:00:17;;;;;;;49.70;47.73;;;9.10;99.90;;;;;;5041037;28;20463;-81
2022/04/07 01:02:44;;;;;;;43.97;42.07;;;9.30;99.90;;;;;;5039897;28;20448;-81
2022/04/07 01:05:11;;;;;;;31.93;30.57;;;9.60;99.90;;;;;;5041168;28;20468;-81
2022/04/07 01:07:40;;;;;;;10.63;9.87;;;9.60;99.90;;;;;;5039460;28;20945;-81
2022/04/07 01:10:09;;;;;;;18.10;17.00;;;9.60;99.40;;;;;;5038271;28;20457;-82
2022/04/07 01:12:36;;;;;;;18.50;17.60;;;9.60;99.90;;;;;;5039597;28;20460;-81
2022/04/07 01:15:06;;;;;;;28.77;27.47;;;9.60;99.90;;;;;;5040576;28;20468;-81
2022/04/07 01:17:34;;;;;;;32.30;30.77;;;9.50;99.90;;;;;;5041492;28;20452;-82
2022/04/07 01:20:01;;;;;;;82.53;79.53;;;9.50;99.90;;;;;;5040053;28;20464;-81
2022/04/07 01:22:28;;;;;;;72.40;69.70;;;9.50;99.90;;;;;;5040904;28;20444;-82
2022/04/07 01:24:56;;;;;;;53.33;51.07;;;9.40;99.90;;;;;;5040870;28;20480;-82
2022/04/07 01:27:24;;;;;;;50.30;47.90;;;9.50;99.90;;;;;;5040677;28;20479;-81
2022/04/07 01:29:53;;;;;;;46.63;44.73;;;9.50;99.90;;;;;;5038931;28;20479;-81
2022/04/07 01:32:27;;;;;;;40.23;38.53;;;9.80;99.90;;;;;;5040257;28;20482;-81
2022/04/07 01:34:55;;;;;;;14.57;13.63;;;9.60;99.90;;;;;;5039765;28;20475;-81
2022/04/07 01:37:21;;;;;;;33.97;32.37;;;9.90;99.90;;;;;;5040077;28;20468;-81
2022/04/07 01:39:51;;;;;;;15.47;14.43;;;10.00;99.20;;;;;;5039709;28;20503;-81
2022/04/07 01:42:19;;;;;;;23.43;22.30;;;9.80;98.50;;;;;;5044019;28;20456;-82
2022/04/07 01:44:49;;;;;;;25.47;24.27;;;9.80;98.80;;;;;;5043157;28;20460;-81
2022/04/07 01:47:20;;;;;;;19.37;18.30;;;9.90;99.60;;;;;;5046916;28;20451;-82
2022/04/07 01:49:52;;;;;;;14.67;13.87;;;9.90;99.10;;;;;;5027665;28;20445;-80
2022/04/07 01:52:19;;;;;;;24.33;23.23;;;9.80;98.80;;;;;;5039806;28;20460;-81
2022/04/07 01:54:47;;;;;;;13.00;12.30;;;9.90;98.00;;;;;;5038972;28;20460;-81
2022/04/07 01:57:15;;;;;;;11.50;10.60;;;10.00;96.30;;;;;;5039686;28;20904;-81
2022/04/07 01:59:43;;;;;;;8.73;8.03;;;10.10;95.80;;;;;;5038809;28;20496;-81
2022/04/07 02:02:10;;;;;;;8.80;8.00;;;10.20;95.60;;;;;;5039756;28;20463;-81
2022/04/07 02:04:53;;;;;;;7.10;6.27;;;10.10;95.10;;;;;;5039035;28;20451;-82
2022/04/07 02:07:20;;;;;;;7.33;6.73;;;10.20;94.50;;;;;;5039747;28;20514;-81
2022/04/07 02:09:46;;;;;;;7.00;6.03;;;10.20;94.40;;;;;;5038033;28;20448;-81
2022/04/07 02:12:13;;;;;;;6.03;5.53;;;10.20;94.10;;;;;;5039871;28;20456;-83
2022/04/07 02:14:40;;;;;;;11.10;10.20;;;10.20;93.50;;;;;;5038383;28;20456;-81
2022/04/07 02:17:08;;;;;;;13.07;11.97;;;10.30;94.40;;;;;;5039201;28;20474;-81
2022/04/07 02:19:35;;;;;;;14.20;13.47;;;10.00;95.00;;;;;;5038162;28;20476;-84
2022/04/07 02:22:01;;;;;;;11.10;10.27;;;10.00;95.50;;;;;;5040886;28;20456;-82
2022/04/07 02:24:28;;;;;;;22.87;21.67;;;9.80;96.90;;;;;;5042574;28;20448;-81
2022/04/07 02:26:55;;;;;;;11.93;11.23;;;9.80;98.00;;;;;;5042565;28;20479;-81
2022/04/07 02:29:22;;;;;;;9.40;8.70;;;9.90;96.20;;;;;;5042185;28;20540;-81
2022/04/07 02:31:48;;;;;;;10.00;9.40;;;9.90;94.80;;;;;;5042337;28;20456;-80
2022/04/07 02:34:16;;;;;;;6.80;6.30;;;9.80;95.40;;;;;;5040927;28;20459;-80
2022/04/07 02:36:43;;;;;;;5.00;4.50;;;9.90;94.80;;;;;;5040824;28;20475;-80
2022/04/07 02:39:10;;;;;;;5.33;4.70;;;10.10;93.30;;;;;;5041488;28;20479;-80
2022/04/07 02:41:36;;;;;;;6.43;3.60;;;9.90;93.70;;;;;;5041058;28;20452;-80
2022/04/07 02:44:03;;;;;;;5.43;4.93;;;9.90;93.60;;;;;;5041807;28;20444;-80
2022/04/07 02:46:30;;;;;;;6.20;3.70;;;9.80;94.00;;;;;;5040521;28;20546;-80
2022/04/07 02:48:57;;;;;;;5.33;4.87;;;9.90;94.20;;;;;;5040808;28;20454;-81
2022/04/07 02:51:26;;;;;;;6.10;4.90;;;9.80;94.20;;;;;;5042366;28;20458;-81
2022/04/07 02:53:57;;;;;;;8.30;5.70;;;9.90;94.50;;;;;;5042158;28;20479;-80
2022/04/07 02:56:24;;;;;;;4.63;4.03;;;10.00;93.40;;;;;;5040723;28;20506;-81
2022/04/07 02:58:51;;;;;;;6.03;4.70;;;10.00;92.60;;;;;;5041355;28;20472;-81
2022/04/07 03:01:18;;;;;;;8.60;3.90;;;10.20;92.90;;;;;;5040707;28;20463;-80
2022/04/07 03:03:45;;;;;;;5.10;3.43;;;10.10;92.80;;;;;;5041102;28;20448;-80
2022/04/07 03:06:12;;;;;;;4.60;3.27;;;10.10;92.30;;;;;;5038651;28;20832;-79
2022/04/07 03:08:40;;;;;;;6.40;4.00;;;10.20;92.40;;;;;;5037667;28;20448;-81
2022/04/07 03:11:09;;;;;;;4.33;3.00;;;10.10;92.70;;;;;;5038061;28;20506;-80
2022/04/07 03:13:37;;;;;;;4.97;2.97;;;10.40;91.40;;;;;;5037466;28;20452;-80
2022/04/07 03:16:05;;;;;;;6.50;2.77;;;10.20;91.10;;;;;;5036884;28;20460;-78
2022/04/07 03:18:32;;;;;;;5.37;3.10;;;10.20;91.60;;;;;;5038729;28;20456;-81
2022/04/07 03:20:59;;;;;;;4.50;2.50;;;10.20;91.30;;;;;;5038322;28;20461;-79
2022/04/07 03:23:26;;;;;;;11.23;3.37;;;10.30;91.10;;;;;;5037098;28;20855;-81
2022/04/07 03:25:54;;;;;;;7.93;3.03;;;10.20;91.50;;;;;;5030508;28;20472;-80
2022/04/07 03:28:21;;;;;;;6.47;2.73;;;10.10;91.00;;;;;;5019715;28;20449;-80
2022/04/07 03:30:49;;;;;;;5.83;3.40;;;10.10;91.00;;;;;;5037131;28;20458;-80
2022/04/07 03:33:15;;;;;;;6.97;3.30;;;10.20;91.40;;;;;;5039278;28;20452;-82
2022/04/07 03:35:43;;;;;;;10.53;3.77;;;10.20;91.00;;;;;;5029186;28;20472;-81
2022/04/07 03:38:10;;;;;;;9.17;3.57;;;10.10;91.50;;;;;;5037210;28;20470;-80
2022/04/07 03:40:36;;;;;;;8.27;4.83;;;10.30;91.10;;;;;;5039574;28;20476;-81
2022/04/07 03:43:06;;;;;;;6.50;3.10;;;10.20;91.70;;;;;;5040233;28;20941;-80
2022/04/07 03:45:33;;;;;;;5.07;3.53;;;10.30;91.10;;;;;;5040136;28;20474;-80
2022/04/07 03:48:01;;;;;;;8.60;4.93;;;10.40;91.10;;;;;;5039948;28;20452;-83
2022/04/07 03:50:28;;;;;;;6.80;6.10;;;10.20;92.00;;;;;;5037621;28;20511;-80
2022/04/07 03:52:54;;;;;;;5.83;5.33;;;10.20;93.00;;;;;;5040255;28;20856;-83
2022/04/07 03:55:22;;;;;;;6.50;5.80;;;10.10;92.70;;;;;;5038185;28;20479;-79
2022/04/07 03:57:49;;;;;;;11.30;8.40;;;10.10;92.70;;;;;;5038021;28;20452;-81
2022/04/07 04:00:18;;;;;;;6.47;5.90;;;10.20;92.90;;;;;;5037332;28;20479;-80
2022/04/07 04:02:44;;;;;;;9.03;5.43;;;10.10;92.50;;;;;;5038799;28;21195;-82
2022/04/07 04:05:11;;;;;;;6.47;5.40;;;10.10;92.60;;;;;;5038839;28;20472;-81
2022/04/07 04:07:38;;;;;;;7.50;5.47;;;10.10;92.80;;;;;;5040055;28;20456;-80
2022/04/07 04:10:05;;;;;;;12.43;6.80;;;10.30;92.90;;;;;;5037440;28;20560;-82
2022/04/07 04:12:33;;;;;;;6.87;5.60;;;10.30;92.20;;;;;;5039980;28;20949;-81
2022/04/07 04:15:15;;;;;;;9.63;6.50;;;10.30;91.90;;;;;;5041248;28;20472;-79
2022/04/07 04:17:43;;;;;;;6.97;4.60;;;10.40;92.30;;;;;;5037991;28;20814;-83
2022/04/07 04:20:34;;;;;;;10.33;5.43;;;10.60;91.60;;;;;;5039894;28;20472;-82
2022/04/07 04:23:09;;;;;;;5.30;4.80;;;10.60;91.20;;;;;;5033902;28;20463;-81
2022/04/07 04:25:36;;;;;;;7.30;5.10;;;10.60;91.20;;;;;;5060199;23;20493;-84
2022/04/07 04:28:03;;;;;;;10.37;6.60;;;10.60;91.60;;;;;;5023293;28;20466;-84
2022/04/07 04:30:30;;;;;;;6.37;5.80;;;10.50;91.90;;;;;;5025116;28;20445;-83
2022/04/07 04:32:58;;;;;;;6.33;5.73;;;10.60;92.40;;;;;;5022102;28;20449;-83
2022/04/07 04:35:25;;;;;;;5.73;4.00;;;10.50;92.80;;;;;;5036923;28;20474;-83
2022/04/07 04:37:52;;;;;;;8.10;5.40;;;10.50;92.40;;;;;;5034790;28;20534;-82
2022/04/07 04:40:20;;;;;;;4.10;3.70;;;10.50;92.40;;;;;;5032220;28;20477;-84
2022/04/07 04:42:46;;;;;;;8.70;3.67;;;10.60;92.20;;;;;;5038067;28;20459;-83
2022/04/07 04:45:13;;;;;;;5.60;4.27;;;10.60;91.90;;;;;;5017978;28;20941;-83
2022/04/07 04:47:40;;;;;;;8.80;6.63;;;10.50;92.40;;;;;;5019208;28;20841;-84
2022/04/07 04:50:12;;;;;;;9.80;9.10;;;10.30;93.20;;;;;;5018958;28;20496;-84
2022/04/07 04:52:39;;;;;;;12.87;11.57;;;10.30;93.80;;;;;;5030115;28;20941;-84
2022/04/07 04:55:07;;;;;;;42.30;40.43;;;10.30;94.40;;;;;;5040061;28;20455;-84
2022/04/07 04:57:34;;;;;;;59.27;56.87;;;10.10;96.50;;;;;;5027548;28;20461;-84
2022/04/07 05:00:01;;;;;;;53.57;51.33;;;10.40;96.90;;;;;;5019708;28;20503;-84
2022/04/07 05:02:28;;;;;;;42.67;40.97;;;10.10;97.50;;;;;;5039737;28;20452;-84
2022/04/07 05:04:56;;;;;;;110.60;106.43;;;10.10;97.60;;;;;;5027412;28;20820;-84
2022/04/07 05:07:25;;;;;;;94.83;91.43;;;10.00;99.60;;;;;;5028988;28;20451;-84
2022/04/07 05:09:55;;;;;;;118.67;114.30;;;10.00;99.60;;;;;;5027678;28;20448;-84
2022/04/07 05:12:22;;;;;;;87.43;84.33;;;10.00;99.90;;;;;;5037460;28;20448;-84
2022/04/07 05:14:54;;;;;;;55.27;53.17;;;10.00;99.60;;;;;;5034333;28;20457;-84
2022/04/07 05:17:23;;;;;;;55.67;53.53;;;10.00;98.90;;;;;;5024810;28;20473;-84
2022/04/07 05:19:50;;;;;;;75.30;72.60;;;10.00;98.70;;;;;;5018938;28;20824;-84
2022/04/07 05:22:18;;;;;;;101.13;97.53;;;10.00;98.90;;;;;;5030486;28;20456;-84
2022/04/07 05:24:48;;;;;;;77.03;74.03;;;10.10;99.40;;;;;;5018897;28;20457;-83
2022/04/07 05:27:15;;;;;;;59.90;57.73;;;10.00;99.10;;;;;;5019405;28;20867;-84
2022/04/07 05:29:42;;;;;;;67.03;64.57;;;9.90;99.70;;;;;;5018174;28;20454;-83
2022/04/07 05:32:09;;;;;;;92.63;89.20;;;9.90;99.40;;;;;;5029144;28;20996;-83
2022/04/07 05:34:35;;;;;;;99.20;95.70;;;10.10;99.30;;;;;;5024449;28;20459;-83
2022/04/07 05:37:02;;;;;;;97.03;93.53;;;10.00;99.30;;;;;;5034290;28;20831;-83
2022/04/07 05:39:29;;;;;;;120.60;116.33;;;10.00;99.40;;;;;;5025403;28;20477;-82
2022/04/07 05:41:57;;;;;;;99.97;96.17;;;10.00;99.30;;;;;;5027197;28;20459;-85
2022/04/07 05:44:24;;;;;;;44.50;42.70;;;10.20;99.40;;;;;;5029387;28;20449;-83
2022/04/07 05:46:51;;;;;;;47.03;45.03;;;10.10;98.10;;;;;;5021673;28;20469;-82
2022/04/07 05:49:18;;;;;;;76.70;73.80;;;10.20;98.00;;;;;;5028705;28;20452;-84
2022/04/07 05:51:45;;;;;;;89.70;86.40;;;10.00;98.10;;;;;;5029589;28;20525;-84
2022/04/07 05:54:16;;;;;;;118.53;114.33;;;10.10;98.50;;;;;;5018632;28;20445;-84
2022/04/07 05:56:42;;;;;;;82.87;79.87;;;10.30;98.50;;;;;;5016300;28;20514;-83
2022/04/07 05:59:10;;;;;;;65.40;62.80;;;10.20;98.30;;;;;;5018958;28;20453;-85
2022/04/07 06:01:37;;;;;;;136.27;131.13;;;10.30;98.80;;;;;;5023193;28;20970;-83
2022/04/07 06:04:04;;;;;;;192.53;186.17;;;10.10;99.40;;;;;;5026144;28;20459;-84
2022/04/07 06:06:30;;;;;;;337.00;325.73;;;10.10;99.90;;;;;;5018658;28;21024;-83
2022/04/07 06:08:57;;;;;;;426.03;410.73;;;10.00;99.90;;;;;;5028553;28;20452;-83
2022/04/07 06:11:24;;;;;;;321.57;310.50;;;9.90;99.90;;;;;;5017502;28;20829;-81
2022/04/07 06:13:50;;;;;;;364.00;351.23;;;9.80;99.90;;;;;;5012420;28;20464;-83
2022/04/07 06:16:19;;;;;;;425.53;409.33;;;9.70;99.90;;;;;;5021923;28;20464;-83
2022/04/07 06:18:45;;;;;;;485.73;466.27;;;9.70;99.90;;;;;;5031876;28;20448;-83
2022/04/07 06:21:12;;;;;;;472.13;453.37;;;9.50;99.90;;;;;;5033107;28;20475;-83
2022/04/07 06:23:39;;;;;;;487.20;467.57;;;9.70;99.90;;;;;;5024700;28;20462;-84
2022/04/07 06:26:06;;;;;;;499.23;479.23;;;9.80;99.90;;;;;;5025393;28;21047;-83
2022/04/07 06:28:33;;;;;;;473.47;455.60;;;9.80;99.90;;;;;;5023128;28;20457;-83
2022/04/07 06:31:00;;;;;;;539.63;517.53;;;10.00;99.90;;;;;;5017587;28;20453;-84
2022/04/07 06:33:28;;;;;;;363.70;350.97;;;9.70;99.90;;;;;;5018264;28;20453;-83
2022/04/07 06:35:54;;;;;;;435.30;419.77;;;10.00;99.90;;;;;;5021530;28;20480;-84
2022/04/07 06:38:21;;;;;;;410.07;395.07;;;10.00;99.90;;;;;;5019485;28;20855;-84
2022/04/07 06:40:48;;;;;;;342.20;330.43;;;10.00;99.90;;;;;;5031251;28;20480;-84
2022/04/07 06:43:15;;;;;;;355.40;342.90;;;10.10;99.90;;;;;;5022700;28;20457;-84
2022/04/07 06:45:41;;;;;;;285.57;276.00;;;10.10;99.90;;;;;;5026449;28;20467;-83
2022/04/07 06:48:09;;;;;;;288.20;279.00;;;10.20;99.90;;;;;;5033790;28;20471;-82
2022/04/07 06:50:37;;;;;;;213.37;206.67;;;10.20;99.90;;;;;;5014629;28;20463;-84
2022/04/07 06:53:04;;;;;;;208.93;202.00;;;10.30;99.90;;;;;;5011954;28;20457;-85
2022/04/07 06:55:31;;;;;;;127.17;122.73;;;10.40;99.90;;;;;;5013392;28;20473;-84
2022/04/07 06:58:00;;;;;;;127.50;123.33;;;10.40;99.70;;;;;;5013797;28;20457;-85
2022/04/07 07:00:29;;;;;;;167.00;161.63;;;10.40;99.80;;;;;;5012983;28;20487;-83
2022/04/07 07:02:57;;;;;;;127.40;123.07;;;10.30;99.90;;;;;;5012901;28;20508;-84
2022/04/07 07:05:26;;;;;;;144.37;139.57;;;10.40;99.00;;;;;;5014554;28;20476;-83
2022/04/07 07:07:55;;;;;;;108.47;104.97;;;10.50;99.90;;;;;;5032196;28;20470;-84
2022/04/07 07:10:23;;;;;;;129.87;125.57;;;10.50;98.60;;;;;;5035981;28;20452;-85
2022/04/07 07:12:50;;;;;;;51.47;49.53;;;10.50;98.80;;;;;;5036268;28;20456;-85
2022/04/07 07:15:16;;;;;;;39.80;38.30;;;10.50;97.80;;;;;;5036405;28;20451;-85
2022/04/07 07:17:43;;;;;;;31.83;30.43;;;10.60;97.90;;;;;;5035595;28;20459;-84
2022/04/07 07:20:12;;;;;;;24.43;23.43;;;10.50;97.00;;;;;;5035706;28;20483;-84
2022/04/07 07:22:39;;;;;;;25.53;24.43;;;10.60;96.60;;;;;;5035575;28;20456;-84
2022/04/07 07:25:09;;;;;;;15.63;14.83;;;10.60;96.70;;;;;;5036259;28;20452;-84
2022/04/07 07:27:38;;;;;;;19.80;18.87;;;10.80;95.80;;;;;;5036248;28;20483;-84
2022/04/07 07:30:08;;;;;;;31.00;29.80;;;10.70;95.50;;;;;;5035417;28;20456;-84
2022/04/07 07:32:35;;;;;;;25.67;24.37;;;10.70;96.30;;;;;;5035980;28;20452;-85
2022/04/07 07:35:02;;;;;;;17.10;16.20;;;10.70;96.70;;;;;;5039725;28;20467;-84
2022/04/07 07:37:29;;;;;;;39.20;37.50;;;10.70;95.90;;;;;;5035800;28;20452;-83
2022/04/07 07:39:56;;;;;;;15.63;14.83;;;10.70;96.40;;;;;;5035498;28;20460;-84
2022/04/07 07:42:24;;;;;;;55.67;53.43;;;10.90;95.40;;;;;;5035237;28;20456;-82
2022/04/07 07:44:51;;;;;;;93.93;90.73;;;10.80;97.20;;;;;;5034724;28;20885;-84
2022/04/07 07:47:18;;;;;;;86.37;83.17;;;10.70;98.70;;;;;;5034676;28;20487;-84
2022/04/07 07:49:44;;;;;;;154.90;150.00;;;10.70;98.60;;;;;;5034952;28;20460;-84
2022/04/07 07:52:11;;;;;;;114.90;111.17;;;10.70;98.70;;;;;;5035030;28;20816;-83
2022/04/07 07:54:38;;;;;;;100.73;97.43;;;10.80;98.10;;;;;;5034787;28;20460;-84
2022/04/07 07:57:05;;;;;;;70.70;68.20;;;11.00;98.00;;;;;;5035564;28;20476;-83
2022/04/07 07:59:33;;;;;;;45.10;43.43;;;11.10;97.40;;;;;;5034208;28;20456;-83
2022/04/07 08:02:00;;;;;;;61.23;59.07;;;11.10;97.10;;;;;;5034082;28;20491;-84
2022/04/07 08:04:26;;;;;;;70.37;67.67;;;11.10;97.60;;;;;;5034628;28;20847;-83
2022/04/07 08:06:53;;;;;;;144.27;139.60;;;11.10;99.30;;;;;;5034057;28;20480;-82
2022/04/07 08:09:20;;;;;;;272.83;264.33;;;10.90;99.90;;;;;;5033819;28;20459;-83
2022/04/07 08:11:46;;;;;;;240.70;232.60;;;10.90;99.90;;;;;;5033879;28;20455;-83
2022/04/07 08:14:13;;;;;;;416.80;402.73;;;11.00;99.90;;;;;;5033088;28;20472;-82
2022/04/07 08:16:41;;;;;;;364.47;352.13;;;10.90;99.90;;;;;;5034494;28;20472;-84
2022/04/07 08:19:09;;;;;;;253.03;245.07;;;11.20;99.90;;;;;;5033739;28;20452;-84
2022/04/07 08:21:36;;;;;;;228.77;221.10;;;11.20;99.90;;;;;;5033855;28;20480;-84
2022/04/07 08:24:03;;;;;;;179.40;173.47;;;11.40;99.90;;;;;;5034282;28;20459;-84
2022/04/07 08:26:29;;;;;;;157.90;152.63;;;11.60;99.90;;;;;;5034209;28;20491;-84
2022/04/07 08:28:56;;;;;;;152.60;147.53;;;11.90;98.80;;;;;;5034022;28;20864;-84
2022/04/07 08:31:25;;;;;;;153.27;148.23;;;12.10;97.10;;;;;;5034677;28;20471;-85
2022/04/07 08:33:53;;;;;;;49.30;47.23;;;12.30;97.00;;;;;;5034338;28;20945;-85
2022/04/07 08:36:20;;;;;;;24.53;23.30;;;12.30;95.90;;;;;;5033203;28;20557;-83
2022/04/07 08:38:47;;;;;;;21.50;20.50;;;12.40;95.30;;;;;;5034001;28;20478;-85
2022/04/07 08:41:14;;;;;;;27.00;25.90;;;12.40;95.50;;;;;;5034723;28;20507;-84
2022/04/07 08:43:42;;;;;;;29.43;28.23;;;12.40;95.90;;;;;;5034464;28;20466;-83
2022/04/07 08:46:11;;;;;;;204.90;198.43;;;11.80;99.90;;;;;;5034348;28;20472;-84
2022/04/07 08:48:38;;;;;;;112.83;109.13;;;11.70;99.90;;;;;;5034009;28;20550;-82
2022/04/07 08:51:07;;;;;;;289.83;280.93;;;11.60;99.90;;;;;;5036027;28;20467;-84
2022/04/07 08:53:34;;;;;;;409.93;396.73;;;11.70;99.90;;;;;;5035715;28;20459;-84
2022/04/07 08:56:02;;;;;;;275.20;266.43;;;11.90;99.90;;;;;;5034836;28;20487;-84
2022/04/07 08:58:29;;;;;;;212.30;205.47;;;12.20;99.90;;;;;;5033763;28;20456;-84
2022/04/07 09:00:56;;;;;;;151.30;146.20;;;12.50;99.90;;;;;;5031696;28;20472;-84
2022/04/07 09:03:23;;;;;;;138.67;134.10;;;12.40;99.90;;;;;;5033186;28;20459;-84
2022/04/07 09:05:54;;;;;;;146.00;141.07;;;12.60;99.90;;;;;;5032853;28;20479;-83
2022/04/07 09:08:29;;;;;;;104.53;101.07;;;12.90;99.80;;;;;;5031988;28;20520;-84
2022/04/07 09:10:57;;;;;;;79.67;76.90;;;13.20;97.90;;;;;;5033180;28;20458;-83
2022/04/07 09:13:26;;;;;;;52.00;50.07;;;13.50;97.20;;;;;;5032648;28;20456;-85
2022/04/07 09:15:53;;;;;;;7.37;6.80;;;13.60;94.40;;;;;;5032998;28;20475;-85
2022/04/07 09:18:25;;;;;;;10.13;9.43;;;13.60;94.70;;;;;;5032169;28;20456;-84
2022/04/07 09:20:52;;;;;;;6.50;6.00;;;13.40;95.20;;;;;;5034566;28;20480;-85
2022/04/07 09:23:19;;;;;;;9.80;9.07;;;13.60;94.20;;;;;;5034655;28;20468;-85
2022/04/07 09:25:49;;;;;;;6.10;5.60;;;13.80;95.50;;;;;;5034222;28;20491;-83
2022/04/07 09:28:26;;;;;;;7.37;2.53;;;14.10;92.70;;;;;;5033186;28;20455;-84
2022/04/07 09:30:53;;;;;;;3.83;1.73;;;14.10;91.50;;;;;;5033255;28;20463;-84
2022/04/07 09:33:22;;;;;;;4.87;3.47;;;14.00;92.20;;;;;;5033327;28;20459;-85
2022/04/07 09:36:00;;;;;;;10.53;9.97;;;13.80;93.60;;;;;;5031942;28;20476;-84
2022/04/07 09:38:27;;;;;;;128.10;123.77;;;13.10;99.90;;;;;;5032536;28;20498;-85
2022/04/07 09:41:04;;;;;;;61.27;59.13;;;12.70;99.90;;;;;;5033257;28;20472;-83
2022/04/07 09:43:30;;;;;;;281.50;273.00;;;12.40;99.90;;;;;;5033306;28;20460;-82
2022/04/07 09:45:57;;;;;;;481.37;465.70;;;12.00;99.90;;;;;;5033117;28;20479;-83
2022/04/07 09:48:27;;;;;;;609.83;584.20;;;11.80;99.90;;;;;;5029322;28;20487;-82
2022/04/07 09:51:04;;;;;;;554.70;533.80;;;11.60;99.90;;;;;;5031044;28;20448;-81
2022/04/07 09:53:37;;;;;;;584.93;560.13;;;11.70;99.90;;;;;;5033123;28;20452;-82
2022/04/07 09:56:06;;;;;;;611.00;582.37;;;11.80;99.90;;;;;;5032819;28;20476;-83
2022/04/07 09:58:34;;;;;;;638.90;605.30;;;11.70;99.90;;;;;;5029945;28;20937;-83
2022/04/07 10:01:02;;;;;;;658.43;619.07;;;11.50;99.90;;;;;;5032675;28;20480;-83
2022/04/07 10:03:30;;;;;;;651.93;613.83;;;11.50;99.90;;;;;;5031601;28;20453;-83
2022/04/07 10:05:58;;;;;;;651.77;611.07;;;11.30;99.90;;;;;;5031372;28;20526;-83
2022/04/07 10:08:25;;;;;;;667.10;621.50;;;11.20;99.90;;;;;;5031696;28;20467;-83
2022/04/07 10:10:53;;;;;;;631.27;590.67;;;11.20;99.90;;;;;;5030658;28;20452;-83
2022/04/07 10:13:21;;;;;;;619.00;584.10;;;11.20;99.90;;;;;;5032559;28;20508;-83
2022/04/07 10:15:48;;;;;;;572.87;546.97;;;11.10;99.90;;;;;;5032245;28;20480;-83
2022/04/07 10:18:22;;;;;;;510.70;491.70;;;10.90;99.90;;;;;;5031253;28;20460;-84
2022/04/07 10:20:53;;;;;;;525.83;503.30;;;10.70;99.90;;;;;;5032423;28;20479;-82
2022/04/07 10:23:35;;;;;;;535.03;510.67;;;10.60;99.90;;;;;;5030464;28;20456;-84
2022/04/07 10:26:04;;;;;;;586.10;555.93;;;10.70;99.90;;;;;;5065853;23;20484;-80
2022/04/07 10:28:32;;;;;;;627.03;589.47;;;10.80;99.90;;;;;;5016757;28;20825;-80
2022/04/07 10:30:59;;;;;;;606.13;573.27;;;11.10;99.90;;;;;;5019643;28;20440;-79
2022/04/07 10:33:40;;;;;;;523.73;501.17;;;11.00;99.90;;;;;;5018305;28;20453;-83
2022/04/07 10:36:09;;;;;;;413.13;397.73;;;11.10;99.90;;;;;;5018337;28;20473;-81
2022/04/07 10:38:38;;;;;;;373.43;360.23;;;11.50;99.90;;;;;;5019624;28;20449;-83
2022/04/07 10:41:05;;;;;;;224.67;217.37;;;11.70;99.90;;;;;;5019272;28;20489;-83
2022/04/07 10:43:38;;;;;;;67.87;65.30;;;11.70;99.90;;;;;;5022770;28;20456;-81
2022/04/07 10:46:22;;;;;;;24.27;23.20;;;11.80;99.90;;;;;;5025506;28;20480;-83
2022/04/07 10:48:51;;;;;;;4.70;4.23;;;11.70;99.90;;;;;;5022417;28;20441;-82
2022/04/07 10:51:19;;;;;;;3.40;1.52;;;11.40;99.90;;;;;;5024136;28;20454;-81
2022/04/07 10:54:02;;;;;;;3.00;0.90;;;11.30;92.70;;;;;;5023327;28;20209;-81
2022/04/07 10:56:32;;;;;;;3.50;1.30;;;11.20;85.90;;;;;;5022112;28;20496;-81
2022/04/07 10:59:13;;;;;;;3.30;1.00;;;11.90;84.20;;;;;;5022726;28;20457;-81
2022/04/07 11:01:59;;;;;;;3.60;0.80;;;12.20;57.60;;;;;;5024216;28;20484;-80
2022/04/07 11:04:40;;;;;;;5.37;1.00;;;12.70;57.70;;;;;;5023902;28;20840;-80
2022/04/07 11:07:17;;;;;;;7.40;0.93;;;13.10;53.10;;;;;;5023518;28;20893;-80
2022/04/07 11:10:19;;;;;;;3.10;0.70;;;13.50;55.80;;;;;;5023493;28;20460;-81
2022/04/07 11:13:01;;;;;;;4.40;0.90;;;13.70;56.20;;;;;;5017844;28;20951;-81
2022/04/07 11:15:45;;;;;;;3.60;0.80;;;13.30;43.60;;;;;;5024989;28;20454;-81
2022/04/07 11:18:23;;;;;;;5.40;0.90;;;13.60;46.10;;;;;;5024530;28;20462;-80
2022/04/07 11:21:08;;;;;;;5.00;0.90;;;14.00;43.50;;;;;;5024335;28;20454;-81
2022/04/07 11:23:42;;;;;;;7.00;1.03;;;14.20;38.90;;;;;;5024214;28;20539;-81
2022/04/07 11:26:18;;;;;;;4.33;0.90;;;14.60;39.50;;;;;;5024107;28;20861;-81
2022/04/07 11:29:08;;;;;;;3.30;0.80;;;14.80;40.80;;;;;;5022158;28;20452;-81
2022/04/07 11:31:50;;;;;;;6.40;1.10;;;15.40;43.30;;;;;;5023765;28;20440;-80
2022/04/07 11:34:42;;;;;;;5.70;2.13;;;14.90;31.30;;;;;;5023764;28;20457;-81
2022/04/07 11:37:09;;;;;;;5.07;1.57;;;14.70;28.10;;;;;;5022096;28;20480;-82
2022/04/07 11:39:39;;;;;;;8.23;1.60;;;14.60;27.90;;;;;;5021581;28;20449;-82
2022/04/07 11:42:06;;;;;;;6.67;1.80;;;14.90;27.90;;;;;;5022116;28;20477;-83
2022/04/07 11:44:33;;;;;;;4.57;1.40;;;15.30;29.30;;;;;;5020771;28;20461;-82
2022/04/07 11:47:02;;;;;;;5.20;1.00;;;15.40;23.70;;;;;;5021695;28;20476;-82
2022/04/07 11:49:29;;;;;;;4.07;1.30;;;15.50;22.50;;;;;;5021731;28;20549;-81
2022/04/07 11:51:56;;;;;;;4.20;1.20;;;15.10;22.40;;;;;;5023006;28;20450;-83
2022/04/07 11:54:24;;;;;;;5.43;1.20;;;15.10;23.50;;;;;;5015967;28;20454;-81
2022/04/07 11:56:52;;;;;;;4.03;1.23;;;15.10;24.50;;;;;;5021756;28;20470;-81
2022/04/07 11:59:20;;;;;;;4.30;0.90;;;15.10;22.50;;;;;;5022068;28;20459;-82
2022/04/07 12:01:47;;;;;;;4.63;1.10;;;15.40;21.30;;;;;;5021590;28;20493;-82
2022/04/07 12:04:16;;;;;;;7.17;1.30;;;16.00;23.70;;;;;;5022721;28;20550;-82
2022/04/07 12:06:45;;;;;;;4.00;1.00;;;15.90;20.20;;;;;;5022547;28;21068;-85
2022/04/07 12:09:12;;;;;;;4.80;1.40;;;15.30;21.90;;;;;;5021136;28;20876;-81
2022/04/07 12:11:40;;;;;;;5.13;1.20;;;14.60;23.20;;;;;;5021897;28;20477;-82
2022/04/07 12:14:09;;;;;;;7.00;1.20;;;15.30;26.00;;;;;;5020911;28;20463;-82
2022/04/07 12:16:44;;;;;;;7.30;1.30;;;15.50;26.10;;;;;;5020937;28;20849;-82
2022/04/07 12:19:11;;;;;;;4.30;1.13;;;16.00;20.40;;;;;;5021410;28;20458;-82
2022/04/07 12:21:54;;;;;;;5.40;1.50;;;15.70;16.60;;;;;;5021267;28;20475;-83
2022/04/07 12:24:21;;;;;;;4.73;1.30;;;15.60;22.30;;;;;;5022431;28;20449;-81
2022/04/07 12:26:49;;;;;;;7.13;1.23;;;15.40;16.40;;;;;;5021055;28;20512;-82
2022/04/07 12:29:17;;;;;;;5.30;1.40;;;14.90;19.90;;;;;;5019966;28;20453;-83
2022/04/07 12:31:45;;;;;;;6.03;1.43;;;15.60;16.60;;;;;;5022252;28;20457;-84
2022/04/07 12:34:13;;;;;;;5.90;1.40;;;15.60;14.40;;;;;;5021199;28;20482;-82
2022/04/07 12:36:41;;;;;;;5.80;1.00;;;15.50;19.50;;;;;;5020573;28;20473;-82
2022/04/07 12:39:11;;;;;;;5.10;1.00;;;16.10;19.50;;;;;;5019752;28;20458;-82